sensor_id;sensor_type;location;lat;lon;timestamp;temperature;humidity
13711;DHT22;6927;51.256;9.410;2022-11-20T00:00:56;-5.30;99.90
13711;DHT22;6927;51.256;9.410;2022-11-20T00:03:23;-5.30;99.90
13711;DHT22;6927;51.256;9.410;2022-11-20T00:05:48;-5.30;99.90
13711;DHT22;6927;51.256;9.410;2022-11-20T00:08:14;-5.30;99.90
13711;DHT22;6927;51.256;9.410;2022-11-20T00:10:40;-5.30;99.90
13711;DHT22;6927;51.256;9.410;2022-11-20T00:13:06;-5.30;99.90
13711;DHT22;6927;51.256;9.410;2022-11-20T00:15:32;-5.30;99.90
13711;DHT22;6927;51.256;9.410;2022-11-20T00:17:57;-5.30;99.90
13711;DHT22;6927;51.256;9.410;2022-11-20T00:20:23;-5.30;99.90
13711;DHT22;6927;51.256;9.410;2022-11-20T00:22:49;-5.30;99.90
13711;DHT22;6927;51.256;9.410;2022-11-20T00:25:15;-5.30;99.90
13711;DHT22;6927;51.256;9.410;2022-11-20T00:27:41;-5.40;99.90
13711;DHT22;6927;51.256;9.410;2022-11-20T00:30:07;-5.40;99.90
13711;DHT22;6927;51.256;9.410;2022-11-20T00:32:33;-5.40;99.90
13711;DHT22;6927;51.256;9.410;2022-11-20T00:34:59;-5.50;99.90
13711;DHT22;6927;51.256;9.410;2022-11-20T00:37:25;-5.50;99.90
13711;DHT22;6927;51.256;9.410;2022-11-20T00:39:50;-5.50;99.90
13711;DHT22;6927;51.256;9.410;2022-11-20T00:42:16;-5.50;99.90
13711;DHT22;6927;51.256;9.410;2022-11-20T00:44:42;-5.50;99.90
13711;DHT22;6927;51.256;9.410;2022-11-20T00:47:07;-5.50;99.90
13711;DHT22;6927;51.256;9.410;2022-11-20T00:49:33;-5.50;99.90
13711;DHT22;6927;51.256;9.410;2022-11-20T00:51:58;-5.50;99.90
13711;DHT22;6927;51.256;9.410;2022-11-20T00:54:24;-5.50;99.90
13711;DHT22;6927;51.256;9.410;2022-11-20T00:56:49;-5.50;99.90
13711;DHT22;6927;51.256;9.410;2022-11-20T00:59:15;-5.60;99.90
13711;DHT22;6927;51.256;9.410;2022-11-20T01:01:40;-5.60;99.90
13711;DHT22;6927;51.256;9.410;2022-11-20T01:04:06;-5.60;99.90
13711;DHT22;6927;51.256;9.410;2022-11-20T01:06:37;-5.70;99.90
13711;DHT22;6927;51.256;9.410;2022-11-20T01:09:07;-5.70;99.90
13711;DHT22;6927;51.256;9.410;2022-11-20T01:11:35;-5.60;99.90
13711;DHT22;6927;51.256;9.410;2022-11-20T01:14:04;-5.60;99.90
13711;DHT22;6927;51.256;9.410;2022-11-20T01:16:36;-5.60;99.90
13711;DHT22;6927;51.256;9.410;2022-11-20T01:19:05;-5.60;99.90
13711;DHT22;6927;51.256;9.410;2022-11-20T01:21:34;-5.60;99.90
13711;DHT22;6927;51.256;9.410;2022-11-20T01:24:01;-5.70;99.90
13711;DHT22;6927;51.256;9.410;2022-11-20T01:26:32;-5.70;99.90
13711;DHT22;6927;51.256;9.410;2022-11-20T01:28:59;-5.70;99.90
13711;DHT22;6927;51.256;9.410;2022-11-20T01:31:34;-5.70;99.90
13711;DHT22;6927;51.256;9.410;2022-11-20T01:34:05;-5.60;99.90
13711;DHT22;6927;51.256;9.410;2022-11-20T01:36:32;-5.60;99.90
13711;DHT22;6927;51.256;9.410;2022-11-20T01:39:12;-5.60;99.90
13711;DHT22;6927;51.256;9.410;2022-11-20T01:41:39;-5.70;99.90
13711;DHT22;6927;51.256;9.410;2022-11-20T01:47:09;-5.70;99.90
13711;DHT22;6927;51.256;9.410;2022-11-20T01:49:40;-5.80;99.90
13711;DHT22;6927;51.256;9.410;2022-11-20T01:52:16;-5.80;99.90
13711;DHT22;6927;51.256;9.410;2022-11-20T01:54:56;-5.80;99.90
13711;DHT22;6927;51.256;9.410;2022-11-20T01:57:25;-5.80;99.90
13711;DHT22;6927;51.256;9.410;2022-11-20T02:00:03;-5.80;99.90
13711;DHT22;6927;51.256;9.410;2022-11-20T02:02:29;-5.80;99.90
13711;DHT22;6927;51.256;9.410;2022-11-20T02:04:57;-5.90;99.90
13711;DHT22;6927;51.256;9.410;2022-11-20T02:07:26;-5.90;99.90
13711;DHT22;6927;51.256;9.410;2022-11-20T02:09:53;-6.00;99.90
13711;DHT22;6927;51.256;9.410;2022-11-20T02:12:19;-6.00;99.90
13711;DHT22;6927;51.256;9.410;2022-11-20T02:15:03;-6.00;99.90
13711;DHT22;6927;51.256;9.410;2022-11-20T02:17:29;-6.00;99.90
13711;DHT22;6927;51.256;9.410;2022-11-20T02:19:55;-6.00;99.90
13711;DHT22;6927;51.256;9.410;2022-11-20T02:22:28;-6.00;99.90
13711;DHT22;6927;51.256;9.410;2022-11-20T02:24:55;-6.00;99.90
13711;DHT22;6927;51.256;9.410;2022-11-20T02:27:22;-6.00;99.90
13711;DHT22;6927;51.256;9.410;2022-11-20T02:30:07;-6.00;99.90
13711;DHT22;6927;51.256;9.410;2022-11-20T02:32:37;-6.10;99.90
13711;DHT22;6927;51.256;9.410;2022-11-20T02:35:37;-6.10;99.90
13711;DHT22;6927;51.256;9.410;2022-11-20T02:37:58;-6.10;99.90
13711;DHT22;6927;51.256;9.410;2022-11-20T02:40:24;-6.10;99.90
13711;DHT22;6927;51.256;9.410;2022-11-20T02:42:54;-6.10;99.90
13711;DHT22;6927;51.256;9.410;2022-11-20T02:45:19;-6.10;99.90
13711;DHT22;6927;51.256;9.410;2022-11-20T02:47:45;-6.10;99.90
13711;DHT22;6927;51.256;9.410;2022-11-20T02:50:11;-6.10;99.90
13711;DHT22;6927;51.256;9.410;2022-11-20T02:52:37;-6.10;99.90
13711;DHT22;6927;51.256;9.410;2022-11-20T02:55:03;-6.10;99.90
13711;DHT22;6927;51.256;9.410;2022-11-20T02:57:28;-6.10;99.90
13711;DHT22;6927;51.256;9.410;2022-11-20T02:59:54;-6.10;99.90
13711;DHT22;6927;51.256;9.410;2022-11-20T03:02:20;-6.10;99.90
13711;DHT22;6927;51.256;9.410;2022-11-20T03:04:45;-6.10;99.90
13711;DHT22;6927;51.256;9.410;2022-11-20T03:07:11;-6.10;99.90
13711;DHT22;6927;51.256;9.410;2022-11-20T03:09:37;-6.10;99.90
13711;DHT22;6927;51.256;9.410;2022-11-20T03:12:03;-6.10;99.90
13711;DHT22;6927;51.256;9.410;2022-11-20T03:14:29;-6.00;99.90
13711;DHT22;6927;51.256;9.410;2022-11-20T03:16:55;-6.00;99.90
13711;DHT22;6927;51.256;9.410;2022-11-20T03:19:21;-6.00;99.90
13711;DHT22;6927;51.256;9.410;2022-11-20T03:21:47;-5.90;99.90
13711;DHT22;6927;51.256;9.410;2022-11-20T03:24:12;-5.90;99.90
13711;DHT22;6927;51.256;9.410;2022-11-20T03:26:39;-5.90;99.90
13711;DHT22;6927;51.256;9.410;2022-11-20T03:29:04;-5.90;99.90
13711;DHT22;6927;51.256;9.410;2022-11-20T03:31:33;-5.90;99.90
13711;DHT22;6927;51.256;9.410;2022-11-20T03:33:59;-5.90;99.90
13711;DHT22;6927;51.256;9.410;2022-11-20T03:36:25;-5.80;99.90
13711;DHT22;6927;51.256;9.410;2022-11-20T03:38:52;-5.80;99.90
13711;DHT22;6927;51.256;9.410;2022-11-20T03:41:21;-5.70;99.90
13711;DHT22;6927;51.256;9.410;2022-11-20T03:46:20;-5.70;99.90
13711;DHT22;6927;51.256;9.410;2022-11-20T03:48:45;-5.70;99.90
13711;DHT22;6927;51.256;9.410;2022-11-20T03:51:19;-5.70;99.90
13711;DHT22;6927;51.256;9.410;2022-11-20T03:53:47;-5.60;99.90
13711;DHT22;6927;51.256;9.410;2022-11-20T03:56:15;-5.60;99.90
13711;DHT22;6927;51.256;9.410;2022-11-20T03:58:42;-5.50;99.90
13711;DHT22;6927;51.256;9.410;2022-11-20T04:01:14;-5.50;99.90
13711;DHT22;6927;51.256;9.410;2022-11-20T04:03:41;-5.40;99.90
13711;DHT22;6927;51.256;9.410;2022-11-20T04:06:22;-5.40;99.90
13711;DHT22;6927;51.256;9.410;2022-11-20T04:08:48;-5.40;99.90
13711;DHT22;6927;51.256;9.410;2022-11-20T04:11:19;-5.30;99.90
13711;DHT22;6927;51.256;9.410;2022-11-20T04:13:47;-5.30;99.90
13711;DHT22;6927;51.256;9.410;2022-11-20T04:16:15;-5.30;99.90
13711;DHT22;6927;51.256;9.410;2022-11-20T04:18:40;-5.40;99.90
13711;DHT22;6927;51.256;9.410;2022-11-20T04:21:06;-5.40;99.90
13711;DHT22;6927;51.256;9.410;2022-11-20T04:23:32;-5.50;99.90
13711;DHT22;6927;51.256;9.410;2022-11-20T04:26:04;-5.40;99.90
13711;DHT22;6927;51.256;9.410;2022-11-20T04:28:30;-5.40;99.90
13711;DHT22;6927;51.256;9.410;2022-11-20T04:31:04;-5.40;99.90
13711;DHT22;6927;51.256;9.410;2022-11-20T04:33:30;-5.40;99.90
13711;DHT22;6927;51.256;9.410;2022-11-20T04:36:00;-5.40;99.90
13711;DHT22;6927;51.256;9.410;2022-11-20T04:38:26;-5.50;99.90
13711;DHT22;6927;51.256;9.410;2022-11-20T04:40:56;-5.50;99.90
13711;DHT22;6927;51.256;9.410;2022-11-20T04:43:22;-5.50;99.90
13711;DHT22;6927;51.256;9.410;2022-11-20T04:45:52;-5.50;99.90
13711;DHT22;6927;51.256;9.410;2022-11-20T04:48:21;-5.40;99.90
13711;DHT22;6927;51.256;9.410;2022-11-20T04:50:47;-5.40;99.90
13711;DHT22;6927;51.256;9.410;2022-11-20T04:53:13;-5.40;99.90
13711;DHT22;6927;51.256;9.410;2022-11-20T04:55:38;-5.40;99.90
13711;DHT22;6927;51.256;9.410;2022-11-20T04:58:04;-5.40;99.90
13711;DHT22;6927;51.256;9.410;2022-11-20T05:00:30;-5.50;99.90
13711;DHT22;6927;51.256;9.410;2022-11-20T05:02:57;-5.50;99.90
13711;DHT22;6927;51.256;9.410;2022-11-20T05:05:23;-5.60;99.90
13711;DHT22;6927;51.256;9.410;2022-11-20T05:07:48;-5.70;99.90
13711;DHT22;6927;51.256;9.410;2022-11-20T05:10:14;-5.80;99.90
13711;DHT22;6927;51.256;9.410;2022-11-20T05:12:40;-5.80;99.90
13711;DHT22;6927;51.256;9.410;2022-11-20T05:15:06;-5.80;99.90
13711;DHT22;6927;51.256;9.410;2022-11-20T05:17:31;-5.80;99.90
13711;DHT22;6927;51.256;9.410;2022-11-20T05:19:57;-5.80;99.90
13711;DHT22;6927;51.256;9.410;2022-11-20T05:22:22;-5.70;99.90
13711;DHT22;6927;51.256;9.410;2022-11-20T05:24:48;-5.60;99.90
13711;DHT22;6927;51.256;9.410;2022-11-20T05:27:14;-5.60;99.90
13711;DHT22;6927;51.256;9.410;2022-11-20T05:29:39;-5.50;99.90
13711;DHT22;6927;51.256;9.410;2022-11-20T05:32:05;-5.40;99.90
13711;DHT22;6927;51.256;9.410;2022-11-20T05:34:32;-5.40;99.90
13711;DHT22;6927;51.256;9.410;2022-11-20T05:36:58;-5.30;99.90
13711;DHT22;6927;51.256;9.410;2022-11-20T05:39:23;-5.30;99.90
13711;DHT22;6927;51.256;9.410;2022-11-20T05:41:49;-5.30;99.90
13711;DHT22;6927;51.256;9.410;2022-11-20T05:44:34;-5.30;99.90
13711;DHT22;6927;51.256;9.410;2022-11-20T05:47:00;-5.20;99.90
13711;DHT22;6927;51.256;9.410;2022-11-20T05:49:25;-5.20;99.90
13711;DHT22;6927;51.256;9.410;2022-11-20T05:51:51;-5.20;99.90
13711;DHT22;6927;51.256;9.410;2022-11-20T05:54:17;-5.10;99.90
13711;DHT22;6927;51.256;9.410;2022-11-20T05:56:42;-5.10;99.90
13711;DHT22;6927;51.256;9.410;2022-11-20T05:59:08;-5.00;99.90
13711;DHT22;6927;51.256;9.410;2022-11-20T06:01:34;-5.00;99.90
13711;DHT22;6927;51.256;9.410;2022-11-20T06:04:01;-5.00;99.90
13711;DHT22;6927;51.256;9.410;2022-11-20T06:06:27;-5.00;99.90
13711;DHT22;6927;51.256;9.410;2022-11-20T06:08:52;-5.00;99.90
13711;DHT22;6927;51.256;9.410;2022-11-20T06:11:18;-4.90;99.90
13711;DHT22;6927;51.256;9.410;2022-11-20T06:13:45;-4.80;99.90
13711;DHT22;6927;51.256;9.410;2022-11-20T06:16:14;-4.80;99.90
13711;DHT22;6927;51.256;9.410;2022-11-20T06:18:40;-4.70;99.90
13711;DHT22;6927;51.256;9.410;2022-11-20T06:21:19;-4.60;99.90
13711;DHT22;6927;51.256;9.410;2022-11-20T06:23:46;-4.60;99.90
13711;DHT22;6927;51.256;9.410;2022-11-20T06:26:26;-4.60;99.90
13711;DHT22;6927;51.256;9.410;2022-11-20T06:28:53;-4.50;99.90
13711;DHT22;6927;51.256;9.410;2022-11-20T06:31:20;-4.50;99.90
13711;DHT22;6927;51.256;9.410;2022-11-20T06:33:47;-4.50;99.90
13711;DHT22;6927;51.256;9.410;2022-11-20T06:36:15;-4.50;99.90
13711;DHT22;6927;51.256;9.410;2022-11-20T06:38:41;-4.60;99.90
13711;DHT22;6927;51.256;9.410;2022-11-20T06:41:10;-4.60;99.90
13711;DHT22;6927;51.256;9.410;2022-11-20T06:43:36;-4.50;99.90
13711;DHT22;6927;51.256;9.410;2022-11-20T06:46:02;-4.50;99.90
13711;DHT22;6927;51.256;9.410;2022-11-20T06:48:28;-4.50;99.90
13711;DHT22;6927;51.256;9.410;2022-11-20T06:50:55;-4.50;99.90
13711;DHT22;6927;51.256;9.410;2022-11-20T06:53:21;-4.50;99.90
13711;DHT22;6927;51.256;9.410;2022-11-20T06:55:47;-4.40;99.90
13711;DHT22;6927;51.256;9.410;2022-11-20T06:58:14;-4.40;99.90
13711;DHT22;6927;51.256;9.410;2022-11-20T07:00:40;-4.40;99.90
13711;DHT22;6927;51.256;9.410;2022-11-20T07:03:08;-4.40;99.90
13711;DHT22;6927;51.256;9.410;2022-11-20T07:05:35;-4.40;99.90
13711;DHT22;6927;51.256;9.410;2022-11-20T07:08:02;-4.30;99.90
13711;DHT22;6927;51.256;9.410;2022-11-20T07:10:28;-4.30;99.90
13711;DHT22;6927;51.256;9.410;2022-11-20T07:12:53;-4.10;99.90
13711;DHT22;6927;51.256;9.410;2022-11-20T07:15:20;-4.10;99.90
13711;DHT22;6927;51.256;9.410;2022-11-20T07:17:47;-4.00;99.90
13711;DHT22;6927;51.256;9.410;2022-11-20T07:20:13;-4.00;99.90
13711;DHT22;6927;51.256;9.410;2022-11-20T07:22:38;-3.90;99.90
13711;DHT22;6927;51.256;9.410;2022-11-20T07:25:05;-3.90;99.90
13711;DHT22;6927;51.256;9.410;2022-11-20T07:27:31;-3.70;99.90
13711;DHT22;6927;51.256;9.410;2022-11-20T07:29:56;-3.60;99.90
13711;DHT22;6927;51.256;9.410;2022-11-20T07:32:22;-3.50;99.90
13711;DHT22;6927;51.256;9.410;2022-11-20T07:34:48;-3.60;99.90
13711;DHT22;6927;51.256;9.410;2022-11-20T07:37:14;-3.60;99.90
13711;DHT22;6927;51.256;9.410;2022-11-20T07:39:40;-3.60;99.90
13711;DHT22;6927;51.256;9.410;2022-11-20T07:42:06;-3.60;99.90
13711;DHT22;6927;51.256;9.410;2022-11-20T07:44:32;-3.60;99.90
13711;DHT22;6927;51.256;9.410;2022-11-20T07:46:57;-3.50;99.90
13711;DHT22;6927;51.256;9.410;2022-11-20T07:49:23;-3.40;99.90
13711;DHT22;6927;51.256;9.410;2022-11-20T07:51:52;-3.30;99.90
13711;DHT22;6927;51.256;9.410;2022-11-20T07:54:21;-3.20;99.90
13711;DHT22;6927;51.256;9.410;2022-11-20T07:56:48;-3.10;99.90
13711;DHT22;6927;51.256;9.410;2022-11-20T07:59:14;-2.90;99.90
13711;DHT22;6927;51.256;9.410;2022-11-20T08:01:41;-3.00;99.90
13711;DHT22;6927;51.256;9.410;2022-11-20T08:04:06;-3.00;99.90
13711;DHT22;6927;51.256;9.410;2022-11-20T08:06:32;-3.10;99.90
13711;DHT22;6927;51.256;9.410;2022-11-20T08:08:58;-3.10;99.90
13711;DHT22;6927;51.256;9.410;2022-11-20T08:11:23;-3.00;99.90
13711;DHT22;6927;51.256;9.410;2022-11-20T08:14:07;-3.00;99.90
13711;DHT22;6927;51.256;9.410;2022-11-20T08:16:44;-2.90;99.90
13711;DHT22;6927;51.256;9.410;2022-11-20T08:19:11;-2.90;99.90
13711;DHT22;6927;51.256;9.410;2022-11-20T08:21:37;-3.00;99.90
13711;DHT22;6927;51.256;9.410;2022-11-20T08:24:03;-3.00;99.90
13711;DHT22;6927;51.256;9.410;2022-11-20T08:26:29;-3.00;99.90
13711;DHT22;6927;51.256;9.410;2022-11-20T08:28:58;-3.00;99.90
13711;DHT22;6927;51.256;9.410;2022-11-20T08:31:25;-3.00;99.90
13711;DHT22;6927;51.256;9.410;2022-11-20T08:33:51;-2.90;99.90
13711;DHT22;6927;51.256;9.410;2022-11-20T08:36:18;-2.80;99.90
13711;DHT22;6927;51.256;9.410;2022-11-20T08:38:48;-2.60;99.90
13711;DHT22;6927;51.256;9.410;2022-11-20T08:41:14;-2.60;99.90
13711;DHT22;6927;51.256;9.410;2022-11-20T08:43:53;-2.60;99.90
13711;DHT22;6927;51.256;9.410;2022-11-20T08:46:19;-2.50;99.90
13711;DHT22;6927;51.256;9.410;2022-11-20T08:48:45;-2.50;99.90
13711;DHT22;6927;51.256;9.410;2022-11-20T08:51:11;-2.20;99.90
13711;DHT22;6927;51.256;9.410;2022-11-20T08:53:37;-2.00;99.90
13711;DHT22;6927;51.256;9.410;2022-11-20T08:56:03;-1.70;99.90
13711;DHT22;6927;51.256;9.410;2022-11-20T08:58:28;-1.60;99.90
13711;DHT22;6927;51.256;9.410;2022-11-20T09:00:54;-1.60;99.90
13711;DHT22;6927;51.256;9.410;2022-11-20T09:03:20;-1.80;99.90
13711;DHT22;6927;51.256;9.410;2022-11-20T09:05:45;-2.10;99.90
13711;DHT22;6927;51.256;9.410;2022-11-20T09:08:11;-2.20;99.90
13711;DHT22;6927;51.256;9.410;2022-11-20T09:10:37;-2.30;99.90
13711;DHT22;6927;51.256;9.410;2022-11-20T09:13:05;-2.40;99.90
13711;DHT22;6927;51.256;9.410;2022-11-20T09:15:31;-2.40;99.90
13711;DHT22;6927;51.256;9.410;2022-11-20T09:18:05;-2.60;99.90
13711;DHT22;6927;51.256;9.410;2022-11-20T09:20:31;-2.70;99.90
13711;DHT22;6927;51.256;9.410;2022-11-20T09:22:57;-2.90;99.90
13711;DHT22;6927;51.256;9.410;2022-11-20T09:25:23;-3.00;99.90
13711;DHT22;6927;51.256;9.410;2022-11-20T09:27:58;-3.00;99.90
13711;DHT22;6927;51.256;9.410;2022-11-20T09:30:27;-3.10;99.90
13711;DHT22;6927;51.256;9.410;2022-11-20T09:32:56;-3.10;99.90
13711;DHT22;6927;51.256;9.410;2022-11-20T09:35:22;-3.20;99.90
13711;DHT22;6927;51.256;9.410;2022-11-20T09:37:48;-3.20;99.90
13711;DHT22;6927;51.256;9.410;2022-11-20T09:40:28;-3.30;99.90
13711;DHT22;6927;51.256;9.410;2022-11-20T09:51:59;-2.50;99.90
13711;DHT22;6927;51.256;9.410;2022-11-20T09:54:39;-2.30;99.90
13711;DHT22;6927;51.256;9.410;2022-11-20T09:57:11;-2.10;99.90
13711;DHT22;6927;51.256;9.410;2022-11-20T09:59:45;-2.00;99.90
13711;DHT22;6927;51.256;9.410;2022-11-20T10:10:38;-1.60;99.90
13711;DHT22;6927;51.256;9.410;2022-11-20T10:13:24;-1.60;99.90
13711;DHT22;6927;51.256;9.410;2022-11-20T10:22:15;-1.40;99.90
13711;DHT22;6927;51.256;9.410;2022-11-20T10:25:19;-1.10;99.90
13711;DHT22;6927;51.256;9.410;2022-11-20T10:30:55;-0.50;99.90
13711;DHT22;6927;51.256;9.410;2022-11-20T10:33:44;-0.50;99.90
13711;DHT22;6927;51.256;9.410;2022-11-20T10:36:25;-0.50;99.90
13711;DHT22;6927;51.256;9.410;2022-11-20T10:39:06;-0.50;99.90
13711;DHT22;6927;51.256;9.410;2022-11-20T10:41:42;-0.50;99.90
13711;DHT22;6927;51.256;9.410;2022-11-20T10:44:30;-0.60;99.90
13711;DHT22;6927;51.256;9.410;2022-11-20T10:47:17;-0.50;99.90
13711;DHT22;6927;51.256;9.410;2022-11-20T10:49:53;-0.40;99.90
13711;DHT22;6927;51.256;9.410;2022-11-20T10:55:22;-0.80;99.90
13711;DHT22;6927;51.256;9.410;2022-11-20T10:58:08;-1.00;99.90
13711;DHT22;6927;51.256;9.410;2022-11-20T11:00:38;-0.90;99.90
13711;DHT22;6927;51.256;9.410;2022-11-20T11:03:25;-0.70;99.90
13711;DHT22;6927;51.256;9.410;2022-11-20T11:08:35;-0.50;99.90
13711;DHT22;6927;51.256;9.410;2022-11-20T11:11:30;-0.40;99.90
13711;DHT22;6927;51.256;9.410;2022-11-20T11:14:07;0.10;99.90
13711;DHT22;6927;51.256;9.410;2022-11-20T11:16:40;0.20;99.90
13711;DHT22;6927;51.256;9.410;2022-11-20T11:19:19;0.30;99.90
13711;DHT22;6927;51.256;9.410;2022-11-20T11:21:50;0.40;99.90
13711;DHT22;6927;51.256;9.410;2022-11-20T11:24:24;0.50;99.90
13711;DHT22;6927;51.256;9.410;2022-11-20T11:26:59;0.40;99.90
13711;DHT22;6927;51.256;9.410;2022-11-20T11:29:25;0.50;99.90
13711;DHT22;6927;51.256;9.410;2022-11-20T11:32:11;0.40;99.90
13711;DHT22;6927;51.256;9.410;2022-11-20T11:34:37;0.50;99.90
13711;DHT22;6927;51.256;9.410;2022-11-20T11:37:04;0.60;99.90
13711;DHT22;6927;51.256;9.410;2022-11-20T11:39:31;0.50;99.90
13711;DHT22;6927;51.256;9.410;2022-11-20T11:42:01;0.60;99.90
13711;DHT22;6927;51.256;9.410;2022-11-20T11:44:28;0.90;99.90
13711;DHT22;6927;51.256;9.410;2022-11-20T11:47:25;1.00;99.90
13711;DHT22;6927;51.256;9.410;2022-11-20T11:53:17;1.00;99.90
13711;DHT22;6927;51.256;9.410;2022-11-20T11:58:47;1.10;99.90
13711;DHT22;6927;51.256;9.410;2022-11-20T12:01:26;1.10;99.90
13711;DHT22;6927;51.256;9.410;2022-11-20T12:04:09;1.20;99.90
13711;DHT22;6927;51.256;9.410;2022-11-20T12:06:39;1.00;99.90
13711;DHT22;6927;51.256;9.410;2022-11-20T12:09:11;1.10;99.90
13711;DHT22;6927;51.256;9.410;2022-11-20T12:11:47;1.40;99.90
13711;DHT22;6927;51.256;9.410;2022-11-20T12:14:21;1.70;99.90
13711;DHT22;6927;51.256;9.410;2022-11-20T12:16:52;1.70;99.90
13711;DHT22;6927;51.256;9.410;2022-11-20T12:19:18;1.70;99.90
13711;DHT22;6927;51.256;9.410;2022-11-20T12:22:09;1.20;99.90
13711;DHT22;6927;51.256;9.410;2022-11-20T12:29:56;1.10;99.90
13711;DHT22;6927;51.256;9.410;2022-11-20T12:43:21;2.90;99.90
13711;DHT22;6927;51.256;9.410;2022-11-20T12:52:11;2.50;99.90
13711;DHT22;6927;51.256;9.410;2022-11-20T12:57:54;1.50;99.90
13711;DHT22;6927;51.256;9.410;2022-11-20T13:00:30;1.30;99.90
13711;DHT22;6927;51.256;9.410;2022-11-20T13:03:21;1.20;99.90
13711;DHT22;6927;51.256;9.410;2022-11-20T13:08:32;1.70;99.90
13711;DHT22;6927;51.256;9.410;2022-11-20T13:11:18;1.70;99.90
13711;DHT22;6927;51.256;9.410;2022-11-20T13:19:28;1.10;99.90
13711;DHT22;6927;51.256;9.410;2022-11-20T13:21:55;0.90;99.90
13711;DHT22;6927;51.256;9.410;2022-11-20T13:24:22;0.70;99.90
13711;DHT22;6927;51.256;9.410;2022-11-20T13:29:36;0.50;99.90
13711;DHT22;6927;51.256;9.410;2022-11-20T13:32:12;0.60;99.90
13711;DHT22;6927;51.256;9.410;2022-11-20T13:34:59;0.70;99.90
13711;DHT22;6927;51.256;9.410;2022-11-20T13:37:30;1.10;99.90
13711;DHT22;6927;51.256;9.410;2022-11-20T13:40:25;1.60;99.90
13711;DHT22;6927;51.256;9.410;2022-11-20T13:45:40;2.30;99.90
13711;DHT22;6927;51.256;9.410;2022-11-20T13:48:20;2.50;99.90
13711;DHT22;6927;51.256;9.410;2022-11-20T13:56:05;1.70;99.90
13711;DHT22;6927;51.256;9.410;2022-11-20T14:01:14;2.60;99.90
13711;DHT22;6927;51.256;9.410;2022-11-20T14:03:40;2.80;99.90
13711;DHT22;6927;51.256;9.410;2022-11-20T14:06:34;2.90;99.90
13711;DHT22;6927;51.256;9.410;2022-11-20T14:08:58;2.70;99.90
13711;DHT22;6927;51.256;9.410;2022-11-20T14:11:25;2.10;99.90
13711;DHT22;6927;51.256;9.410;2022-11-20T14:14:14;1.70;99.90
13711;DHT22;6927;51.256;9.410;2022-11-20T14:16:40;1.40;99.90
13711;DHT22;6927;51.256;9.410;2022-11-20T14:19:27;1.30;99.90
13711;DHT22;6927;51.256;9.410;2022-11-20T14:22:26;1.20;99.90
13711;DHT22;6927;51.256;9.410;2022-11-20T14:25:17;1.10;99.90
13711;DHT22;6927;51.256;9.410;2022-11-20T14:27:45;0.90;99.90
13711;DHT22;6927;51.256;9.410;2022-11-20T14:30:19;0.70;99.90
13711;DHT22;6927;51.256;9.410;2022-11-20T14:32:46;0.60;99.90
13711;DHT22;6927;51.256;9.410;2022-11-20T14:35:28;0.60;99.90
13711;DHT22;6927;51.256;9.410;2022-11-20T14:37:54;0.50;99.90
13711;DHT22;6927;51.256;9.410;2022-11-20T14:40:30;0.40;99.90
13711;DHT22;6927;51.256;9.410;2022-11-20T14:42:57;0.30;99.90
13711;DHT22;6927;51.256;9.410;2022-11-20T14:45:24;0.20;99.90
13711;DHT22;6927;51.256;9.410;2022-11-20T14:47:52;0.10;99.90
13711;DHT22;6927;51.256;9.410;2022-11-20T14:50:24;0.10;99.90
13711;DHT22;6927;51.256;9.410;2022-11-20T14:52:58;0.10;99.90
13711;DHT22;6927;51.256;9.410;2022-11-20T14:55:28;0.10;99.90
13711;DHT22;6927;51.256;9.410;2022-11-20T14:58:02;0.10;99.90
13711;DHT22;6927;51.256;9.410;2022-11-20T15:00:29;0.00;99.90
13711;DHT22;6927;51.256;9.410;2022-11-20T15:02:56;0.00;99.90
13711;DHT22;6927;51.256;9.410;2022-11-20T15:05:24;0.00;99.90
13711;DHT22;6927;51.256;9.410;2022-11-20T15:08:04;-0.10;99.90
13711;DHT22;6927;51.256;9.410;2022-11-20T15:10:30;-0.10;99.90
13711;DHT22;6927;51.256;9.410;2022-11-20T15:13:05;-0.10;99.90
13711;DHT22;6927;51.256;9.410;2022-11-20T15:15:54;-0.10;99.90
13711;DHT22;6927;51.256;9.410;2022-11-20T15:18:22;0.00;99.90
13711;DHT22;6927;51.256;9.410;2022-11-20T15:20:50;0.00;99.90
13711;DHT22;6927;51.256;9.410;2022-11-20T15:23:17;0.00;99.90
13711;DHT22;6927;51.256;9.410;2022-11-20T15:25:44;0.00;99.90
13711;DHT22;6927;51.256;9.410;2022-11-20T15:30:41;0.00;99.90
13711;DHT22;6927;51.256;9.410;2022-11-20T15:33:08;0.00;99.90
13711;DHT22;6927;51.256;9.410;2022-11-20T15:35:34;0.00;99.90
13711;DHT22;6927;51.256;9.410;2022-11-20T15:38:00;0.00;99.90
13711;DHT22;6927;51.256;9.410;2022-11-20T15:40:25;0.00;99.90
13711;DHT22;6927;51.256;9.410;2022-11-20T15:42:51;0.00;99.90
13711;DHT22;6927;51.256;9.410;2022-11-20T15:45:44;0.00;99.90
13711;DHT22;6927;51.256;9.410;2022-11-20T15:51:31;0.00;99.90
13711;DHT22;6927;51.256;9.410;2022-11-20T15:54:00;0.00;99.90
13711;DHT22;6927;51.256;9.410;2022-11-20T15:56:27;0.10;99.90
13711;DHT22;6927;51.256;9.410;2022-11-20T15:58:52;0.10;99.90
13711;DHT22;6927;51.256;9.410;2022-11-20T16:01:20;0.20;99.90
13711;DHT22;6927;51.256;9.410;2022-11-20T16:03:47;0.20;99.90
13711;DHT22;6927;51.256;9.410;2022-11-20T16:06:12;0.10;99.90
13711;DHT22;6927;51.256;9.410;2022-11-20T16:08:38;0.10;99.90
13711;DHT22;6927;51.256;9.410;2022-11-20T16:11:04;0.10;99.90
13711;DHT22;6927;51.256;9.410;2022-11-20T16:13:31;0.10;99.90
13711;DHT22;6927;51.256;9.410;2022-11-20T16:16:22;0.10;99.90
13711;DHT22;6927;51.256;9.410;2022-11-20T16:18:49;0.10;99.90
13711;DHT22;6927;51.256;9.410;2022-11-20T16:21:15;0.10;99.90
13711;DHT22;6927;51.256;9.410;2022-11-20T16:23:41;0.10;99.90
13711;DHT22;6927;51.256;9.410;2022-11-20T16:26:17;0.10;99.90
13711;DHT22;6927;51.256;9.410;2022-11-20T16:28:44;0.20;99.90
13711;DHT22;6927;51.256;9.410;2022-11-20T16:31:11;0.10;99.90
13711;DHT22;6927;51.256;9.410;2022-11-20T16:33:37;0.10;99.90
13711;DHT22;6927;51.256;9.410;2022-11-20T16:36:13;0.10;99.90
13711;DHT22;6927;51.256;9.410;2022-11-20T16:38:39;0.10;99.90
13711;DHT22;6927;51.256;9.410;2022-11-20T16:41:05;0.20;99.90
13711;DHT22;6927;51.256;9.410;2022-11-20T16:43:31;0.20;99.90
13711;DHT22;6927;51.256;9.410;2022-11-20T16:45:57;0.20;99.90
13711;DHT22;6927;51.256;9.410;2022-11-20T16:48:23;0.20;99.90
13711;DHT22;6927;51.256;9.410;2022-11-20T16:50:51;0.20;99.90
13711;DHT22;6927;51.256;9.410;2022-11-20T16:53:17;0.20;99.90
13711;DHT22;6927;51.256;9.410;2022-11-20T16:55:44;0.30;99.90
13711;DHT22;6927;51.256;9.410;2022-11-20T16:58:10;0.20;99.90
13711;DHT22;6927;51.256;9.410;2022-11-20T17:00:39;0.20;99.90
13711;DHT22;6927;51.256;9.410;2022-11-20T17:03:05;0.20;99.90
13711;DHT22;6927;51.256;9.410;2022-11-20T17:05:31;0.20;99.90
13711;DHT22;6927;51.256;9.410;2022-11-20T17:07:57;0.20;99.90
13711;DHT22;6927;51.256;9.410;2022-11-20T17:10:23;0.30;99.90
13711;DHT22;6927;51.256;9.410;2022-11-20T17:12:51;0.30;99.90
13711;DHT22;6927;51.256;9.410;2022-11-20T17:15:16;0.30;99.90
13711;DHT22;6927;51.256;9.410;2022-11-20T17:17:42;0.30;99.90
13711;DHT22;6927;51.256;9.410;2022-11-20T17:20:09;0.30;99.90
13711;DHT22;6927;51.256;9.410;2022-11-20T17:22:34;0.20;99.90
13711;DHT22;6927;51.256;9.410;2022-11-20T17:25:03;0.20;99.90
13711;DHT22;6927;51.256;9.410;2022-11-20T17:27:29;0.20;99.90
13711;DHT22;6927;51.256;9.410;2022-11-20T17:29:55;0.20;99.90
13711;DHT22;6927;51.256;9.410;2022-11-20T17:32:22;0.20;99.90
13711;DHT22;6927;51.256;9.410;2022-11-20T17:34:47;0.20;99.90
13711;DHT22;6927;51.256;9.410;2022-11-20T17:37:13;0.20;99.90
13711;DHT22;6927;51.256;9.410;2022-11-20T17:39:38;0.20;99.90
13711;DHT22;6927;51.256;9.410;2022-11-20T17:42:05;0.20;99.90
13711;DHT22;6927;51.256;9.410;2022-11-20T17:44:49;0.20;99.90